Time;durP1;ratioP1;P1;durP2;ratioP2;P2;SDS_P1;SDS_P2;PMS_P1;PMS_P2;Temp;Humidity;BMP_temperature;BMP_pressure;BME280_temperature;BME280_humidity;BME280_pressure;Samples;Min_cycle;Max_cycle;Signal;HPM_P1;HPM_P2
2024/04/07 00:01:31;;;;;;;26.08;4.10;;;13.50;99.90;;;;;;5012151;28;20052;-72
2024/04/07 00:03:58;;;;;;;20.45;4.30;;;13.40;99.90;;;;;;5007252;28;20045;-73
2024/04/07 00:06:24;;;;;;;28.00;5.05;;;13.50;99.90;;;;;;5001820;28;20068;-72
2024/04/07 00:08:50;;;;;;;27.27;4.30;;;13.50;99.90;;;;;;5003238;28;20053;-73
2024/04/07 00:11:16;;;;;;;27.73;5.03;;;13.40;99.90;;;;;;5022911;28;20075;-72
2024/04/07 00:13:42;;;;;;;15.18;3.22;;;13.40;99.90;;;;;;5026393;28;20397;-72
2024/04/07 00:16:08;;;;;;;29.85;4.70;;;13.40;99.90;;;;;;5024366;28;20100;-73
2024/04/07 00:18:34;;;;;;;27.42;5.45;;;13.30;99.90;;;;;;5025665;28;20057;-72
2024/04/07 00:21:03;;;;;;;23.17;4.53;;;13.30;99.90;;;;;;5023325;28;20048;-72
2024/04/07 00:23:29;;;;;;;17.85;4.00;;;13.30;99.90;;;;;;5012790;28;20499;-71
2024/04/07 00:25:55;;;;;;;21.42;3.30;;;13.30;99.90;;;;;;5024447;28;20133;-71
2024/04/07 00:28:21;;;;;;;17.00;3.38;;;13.20;99.90;;;;;;5026087;28;20400;-71
2024/04/07 00:30:47;;;;;;;25.10;3.65;;;13.20;99.90;;;;;;5004568;28;20064;-71
2024/04/07 00:33:13;;;;;;;23.75;5.22;;;13.10;99.90;;;;;;5027305;28;20055;-71
2024/04/07 00:35:39;;;;;;;19.08;3.60;;;13.10;99.90;;;;;;5024845;28;20045;-71
2024/04/07 00:38:06;;;;;;;24.20;3.65;;;13.10;99.90;;;;;;5027010;28;20052;-71
2024/04/07 00:40:31;;;;;;;22.90;4.78;;;13.10;99.90;;;;;;5027385;28;20056;-71
2024/04/07 00:42:57;;;;;;;16.20;3.00;;;13.00;99.90;;;;;;5020654;28;20049;-71
2024/04/07 00:45:23;;;;;;;24.23;3.72;;;13.00;99.90;;;;;;5026047;28;20114;-72
2024/04/07 00:47:49;;;;;;;23.58;4.72;;;13.00;99.90;;;;;;5023304;28;20041;-71
2024/04/07 00:50:15;;;;;;;22.30;3.47;;;12.90;99.90;;;;;;5038491;28;20056;-71
2024/04/07 00:52:41;;;;;;;20.35;3.33;;;12.90;99.90;;;;;;5010385;28;20048;-71
2024/04/07 00:55:08;;;;;;;21.02;3.92;;;12.80;99.90;;;;;;5028979;28;20057;-71
2024/04/07 00:57:34;;;;;;;28.23;3.35;;;12.80;99.90;;;;;;5025955;28;20041;-71
2024/04/07 01:00:01;;;;;;;25.65;4.15;;;12.80;99.90;;;;;;4992436;28;20057;-71
2024/04/07 01:02:27;;;;;;;17.70;3.70;;;12.80;99.90;;;;;;4992954;28;20044;-71
2024/04/07 01:04:52;;;;;;;28.08;3.72;;;12.80;99.90;;;;;;4994406;28;20093;-71
2024/04/07 01:07:18;;;;;;;26.38;3.47;;;12.80;99.90;;;;;;5024732;28;20519;-71
2024/04/07 01:09:44;;;;;;;26.48;5.40;;;12.80;99.90;;;;;;5011334;28;20049;-71
2024/04/07 01:12:12;;;;;;;30.00;5.05;;;12.80;99.90;;;;;;5023684;28;20101;-71
2024/04/07 01:14:38;;;;;;;20.13;3.58;;;12.80;99.90;;;;;;5019501;28;20056;-71
2024/04/07 01:17:06;;;;;;;21.30;3.15;;;12.80;99.90;;;;;;5019856;28;20060;-72
2024/04/07 01:19:35;;;;;;;26.65;4.35;;;12.70;99.90;;;;;;5025789;28;20052;-71
2024/04/07 01:22:00;;;;;;;26.95;4.10;;;12.70;99.90;;;;;;5039811;28;20052;-71
2024/04/07 01:24:27;;;;;;;23.95;4.45;;;12.70;99.90;;;;;;5004649;28;20479;-71
2024/04/07 01:26:53;;;;;;;28.27;5.18;;;12.70;99.90;;;;;;5019069;28;20053;-71
2024/04/07 01:29:18;;;;;;;24.65;3.83;;;12.70;99.90;;;;;;5021799;28;20393;-71
2024/04/07 01:31:44;;;;;;;27.80;4.22;;;12.70;99.90;;;;;;5023563;28;20050;-71
2024/04/07 01:34:10;;;;;;;30.88;3.78;;;12.70;99.90;;;;;;5033064;28;20048;-70
2024/04/07 01:36:37;;;;;;;19.23;3.55;;;12.70;99.90;;;;;;5012124;28;20048;-71
2024/04/07 01:39:07;;;;;;;22.77;3.22;;;12.70;99.90;;;;;;5007825;28;20131;-72
2024/04/07 01:41:34;;;;;;;24.98;3.95;;;12.70;99.90;;;;;;5012872;28;20063;-71
2024/04/07 01:44:00;;;;;;;20.45;3.80;;;12.70;99.90;;;;;;5006622;28;20053;-71
2024/04/07 01:46:25;;;;;;;20.27;3.38;;;12.60;99.90;;;;;;5022588;28;20462;-71
2024/04/07 01:48:51;;;;;;;16.20;3.38;;;12.60;99.90;;;;;;5018087;28;20412;-71
2024/04/07 01:51:17;;;;;;;22.83;4.03;;;12.60;99.90;;;;;;5021792;28;20052;-71
2024/04/07 01:53:43;;;;;;;21.95;3.67;;;12.60;99.90;;;;;;5019321;28;20140;-71
2024/04/07 01:56:09;;;;;;;21.98;4.15;;;12.60;99.90;;;;;;5021950;28;20065;-71
2024/04/07 01:58:37;;;;;;;29.10;3.95;;;12.50;99.90;;;;;;5009533;28;20084;-71
2024/04/07 02:01:04;;;;;;;14.45;3.22;;;12.50;99.90;;;;;;5018636;28;21468;-71
2024/04/07 02:03:30;;;;;;;26.88;3.42;;;12.50;99.90;;;;;;5010812;28;20044;-71
2024/04/07 02:05:55;;;;;;;35.80;4.35;;;12.50;99.90;;;;;;5025922;28;20056;-72
2024/04/07 02:08:21;;;;;;;26.98;4.60;;;12.50;99.90;;;;;;5022997;28;20484;-70
2024/04/07 02:10:51;;;;;;;12.70;3.10;;;12.50;99.90;;;;;;5019580;28;20621;-71
2024/04/07 02:13:17;;;;;;;23.67;4.82;;;12.50;99.90;;;;;;5009624;28;20522;-71
2024/04/07 02:15:43;;;;;;;18.27;3.83;;;12.40;99.90;;;;;;5014756;28;20060;-71
2024/04/07 02:18:09;;;;;;;29.00;3.95;;;12.40;99.90;;;;;;5022823;28;20251;-71
2024/04/07 02:20:36;;;;;;;20.25;3.92;;;12.50;99.90;;;;;;5025955;28;20049;-71
2024/04/07 02:23:03;;;;;;;19.95;4.45;;;12.40;99.90;;;;;;5012481;28;20057;-71
2024/04/07 02:25:29;;;;;;;29.90;6.35;;;12.40;99.90;;;;;;5015989;28;20128;-71
2024/04/07 02:27:55;;;;;;;20.63;3.63;;;12.40;99.90;;;;;;5006936;28;20056;-71
2024/04/07 02:30:21;;;;;;;31.60;5.85;;;12.50;99.90;;;;;;5017313;28;20060;-71
2024/04/07 02:32:47;;;;;;;40.10;5.55;;;12.40;99.90;;;;;;5018046;28;20053;-71
2024/04/07 02:35:14;;;;;;;36.92;5.15;;;12.50;99.90;;;;;;5020369;28;20053;-71
2024/04/07 02:37:40;;;;;;;23.55;4.18;;;12.50;99.90;;;;;;5026408;28;20045;-71
2024/04/07 02:40:09;;;;;;;19.20;3.55;;;12.40;99.90;;;;;;5021426;28;20053;-71
2024/04/07 02:42:35;;;;;;;28.02;4.35;;;12.40;99.90;;;;;;5042481;28;20049;-70
2024/04/07 02:50:30;;;;;;;14.70;3.25;;;12.40;99.90;;;;;;5022810;28;20460;-70
2024/04/07 02:52:56;;;;;;;25.27;5.38;;;12.40;99.90;;;;;;4989461;28;20052;-70
2024/04/07 02:55:22;;;;;;;26.52;4.25;;;12.40;99.90;;;;;;5019619;28;20052;-71
2024/04/07 02:57:47;;;;;;;17.52;3.03;;;12.40;99.90;;;;;;5023715;28;20044;-71
2024/04/07 03:00:13;;;;;;;23.73;3.67;;;12.40;99.90;;;;;;5020169;28;20416;-71
2024/04/07 03:02:45;;;;;;;21.10;3.33;;;12.40;99.90;;;;;;5005011;28;20087;-70
2024/04/07 03:05:12;;;;;;;24.00;3.40;;;12.30;99.90;;;;;;5021368;28;20041;-71
2024/04/07 03:07:38;;;;;;;30.17;5.65;;;12.30;99.90;;;;;;4994438;28;20068;-71
2024/04/07 03:10:04;;;;;;;16.73;3.58;;;12.30;99.90;;;;;;5005191;28;20057;-71
2024/04/07 03:12:30;;;;;;;24.35;3.90;;;12.40;99.90;;;;;;5023059;28;20542;-71
2024/04/07 03:14:57;;;;;;;21.27;3.80;;;12.40;99.90;;;;;;5021434;28;20077;-70
2024/04/07 03:17:22;;;;;;;29.25;4.05;;;12.40;99.90;;;;;;4995504;28;20045;-71
2024/04/07 03:19:48;;;;;;;24.05;4.00;;;12.40;99.90;;;;;;5031088;28;20045;-71
2024/04/07 03:22:15;;;;;;;19.23;3.65;;;12.40;99.90;;;;;;5006294;28;20094;-71
2024/04/07 03:24:40;;;;;;;28.40;4.22;;;12.30;99.90;;;;;;5026855;28;20053;-71
2024/04/07 03:27:06;;;;;;;16.95;4.47;;;12.30;99.90;;;;;;5026449;28;20061;-71
2024/04/07 03:29:32;;;;;;;24.40;4.05;;;12.10;99.90;;;;;;5034660;28;20656;-71
2024/04/07 03:31:58;;;;;;;25.27;4.75;;;12.20;99.90;;;;;;5005595;28;20087;-71
2024/04/07 03:34:24;;;;;;;25.20;4.10;;;12.20;99.90;;;;;;5029210;28;20044;-71
2024/04/07 03:36:50;;;;;;;23.90;3.97;;;12.30;99.90;;;;;;4989053;28;20053;-71
2024/04/07 03:39:16;;;;;;;25.45;3.47;;;12.20;99.90;;;;;;5031917;28;20056;-71
2024/04/07 03:41:42;;;;;;;29.80;5.13;;;12.20;99.90;;;;;;5011248;28;20060;-71
2024/04/07 03:44:08;;;;;;;30.17;4.95;;;12.20;99.90;;;;;;5039007;28;20360;-72
2024/04/07 03:46:35;;;;;;;31.85;4.97;;;12.10;99.90;;;;;;5023114;28;20049;-72
2024/04/07 03:49:01;;;;;;;27.98;5.28;;;12.10;99.90;;;;;;5009150;28;20500;-71
2024/04/07 03:51:26;;;;;;;30.77;4.25;;;12.10;99.90;;;;;;5025839;28;20416;-70
2024/04/07 03:53:52;;;;;;;22.88;3.75;;;12.20;99.90;;;;;;5011194;28;20259;-71
2024/04/07 03:56:18;;;;;;;36.97;4.65;;;12.20;99.90;;;;;;5025054;28;20052;-70
2024/04/07 03:58:44;;;;;;;14.52;3.97;;;12.20;99.90;;;;;;5024177;28;20587;-70
2024/04/07 04:01:10;;;;;;;20.67;4.80;;;12.30;99.90;;;;;;5025672;28;20064;-71
2024/04/07 04:03:35;;;;;;;27.90;6.25;;;12.20;99.90;;;;;;4997833;28;20048;-71
2024/04/07 04:06:01;;;;;;;25.95;4.50;;;12.20;99.90;;;;;;5025573;28;20045;-71
2024/04/07 04:08:28;;;;;;;22.63;3.67;;;12.30;99.90;;;;;;5014411;28;20045;-70
2024/04/07 04:10:54;;;;;;;26.80;3.35;;;12.20;99.90;;;;;;5026778;28;20467;-70
2024/04/07 04:13:20;;;;;;;29.67;4.13;;;12.20;99.90;;;;;;5018734;28;20122;-71
2024/04/07 04:15:46;;;;;;;23.98;4.72;;;12.20;99.90;;;;;;5024492;28;20515;-71
2024/04/07 04:18:12;;;;;;;27.70;4.10;;;12.20;99.90;;;;;;5024807;28;20076;-71
2024/04/07 04:20:41;;;;;;;24.30;5.13;;;12.20;99.90;;;;;;5016771;28;20045;-71
2024/04/07 04:23:08;;;;;;;20.95;4.30;;;12.20;99.90;;;;;;5027911;28;20061;-71
2024/04/07 04:25:34;;;;;;;26.42;3.95;;;12.10;99.90;;;;;;5024355;28;20052;-71
2024/04/07 04:28:01;;;;;;;31.55;5.18;;;12.10;99.90;;;;;;5026564;28;20049;-71
2024/04/07 04:30:26;;;;;;;30.38;6.88;;;12.10;99.90;;;;;;5021376;28;20068;-72
2024/04/07 04:32:53;;;;;;;22.27;3.63;;;12.10;99.90;;;;;;5030360;28;20461;-72
2024/04/07 04:35:19;;;;;;;19.23;4.47;;;12.00;99.90;;;;;;5025574;28;20048;-73
2024/04/07 04:37:46;;;;;;;23.15;4.03;;;12.10;99.90;;;;;;5003159;28;21241;-72
2024/04/07 04:40:12;;;;;;;28.08;4.57;;;12.10;99.90;;;;;;5024727;28;20060;-72
2024/04/07 04:42:38;;;;;;;19.73;4.47;;;12.00;99.90;;;;;;5018037;28;20044;-72
2024/04/07 04:45:06;;;;;;;19.75;3.55;;;12.00;99.90;;;;;;5022507;28;20143;-72
2024/04/07 04:47:33;;;;;;;42.67;6.18;;;12.00;99.90;;;;;;5017417;28;20057;-73
2024/04/07 04:49:58;;;;;;;25.70;3.22;;;11.90;99.90;;;;;;5020853;28;20048;-70
2024/04/07 04:52:24;;;;;;;30.73;4.78;;;11.90;99.90;;;;;;5023603;28;20041;-71
2024/04/07 04:54:50;;;;;;;28.20;4.75;;;11.90;99.90;;;;;;5020676;28;20060;-71
2024/04/07 04:57:16;;;;;;;31.48;4.25;;;11.80;99.90;;;;;;5009619;28;20487;-71
2024/04/07 04:59:42;;;;;;;34.72;5.57;;;11.80;99.90;;;;;;5020300;28;20105;-71
2024/04/07 05:02:07;;;;;;;27.35;4.47;;;11.90;99.90;;;;;;5021172;28;20412;-71
2024/04/07 05:04:33;;;;;;;29.77;5.00;;;11.80;99.90;;;;;;5022387;28;20041;-71
2024/04/07 05:06:59;;;;;;;24.17;5.85;;;11.80;99.90;;;;;;5039419;28;20041;-72
2024/04/07 05:09:25;;;;;;;24.90;5.13;;;11.80;99.90;;;;;;5022677;28;20037;-71
2024/04/07 05:11:51;;;;;;;17.58;3.35;;;11.80;99.90;;;;;;5041245;28;20053;-71
2024/04/07 05:14:16;;;;;;;22.70;4.18;;;11.80;99.90;;;;;;5024473;28;20546;-71
2024/04/07 05:16:42;;;;;;;29.15;3.97;;;11.80;99.90;;;;;;5026567;28;20636;-71
2024/04/07 05:19:08;;;;;;;28.60;4.53;;;11.80;99.90;;;;;;5024101;28;20128;-71
2024/04/07 05:21:34;;;;;;;22.35;3.05;;;11.70;99.90;;;;;;5018991;28;20528;-72
2024/04/07 05:24:01;;;;;;;26.23;4.30;;;11.70;99.90;;;;;;5001680;28;20092;-72
2024/04/07 05:26:27;;;;;;;31.85;4.22;;;11.70;99.90;;;;;;5017177;28;20048;-72
2024/04/07 05:28:53;;;;;;;26.55;4.65;;;11.70;99.90;;;;;;5022311;28;20067;-72
2024/04/07 05:31:19;;;;;;;24.50;3.67;;;11.70;99.90;;;;;;5010221;28;20060;-72
2024/04/07 05:33:46;;;;;;;37.55;5.13;;;11.70;99.90;;;;;;5026956;28;20045;-72
2024/04/07 05:36:12;;;;;;;20.25;3.78;;;11.70;99.90;;;;;;5004143;28;20051;-72
2024/04/07 05:38:38;;;;;;;27.85;4.10;;;11.70;99.90;;;;;;5024102;28;20045;-72
2024/04/07 05:41:04;;;;;;;33.25;7.35;;;11.70;99.90;;;;;;5014578;28;20053;-72
2024/04/07 05:43:33;;;;;;;21.33;4.05;;;11.70;99.90;;;;;;5024639;28;20072;-72
2024/04/07 05:46:07;;;;;;;24.55;4.60;;;11.70;99.90;;;;;;5009296;28;20087;-72
2024/04/07 05:48:33;;;;;;;24.05;3.95;;;11.70;99.90;;;;;;5005994;28;20053;-71
2024/04/07 05:50:58;;;;;;;38.05;4.80;;;11.70;99.90;;;;;;5023304;28;20045;-72
2024/04/07 05:53:24;;;;;;;19.05;4.47;;;11.70;99.90;;;;;;5006123;28;20056;-71
2024/04/07 05:55:50;;;;;;;24.98;4.47;;;11.80;99.90;;;;;;5020611;28;20041;-71
2024/04/07 05:58:16;;;;;;;20.15;4.30;;;11.70;99.90;;;;;;5016324;28;20102;-71
2024/04/07 06:00:42;;;;;;;22.95;4.35;;;11.80;99.90;;;;;;5020671;28;20106;-71
2024/04/07 06:03:08;;;;;;;32.75;5.05;;;11.80;99.90;;;;;;5025120;28;20068;-71
2024/04/07 06:05:38;;;;;;;24.30;4.35;;;11.80;99.90;;;;;;5016598;28;20053;-71
2024/04/07 06:08:05;;;;;;;34.28;4.63;;;11.80;99.90;;;;;;5016483;28;20554;-71
2024/04/07 06:10:30;;;;;;;29.85;4.82;;;11.70;99.90;;;;;;5022302;28;20428;-71
2024/04/07 06:12:56;;;;;;;28.35;5.05;;;11.70;99.90;;;;;;5019348;28;20049;-71
2024/04/07 06:15:22;;;;;;;21.30;4.22;;;11.80;99.90;;;;;;5023870;28;20048;-71
2024/04/07 06:17:49;;;;;;;21.77;6.32;;;11.80;99.90;;;;;;5001569;28;20060;-71
2024/04/07 06:20:15;;;;;;;21.15;3.63;;;11.80;99.90;;;;;;5023258;28;20441;-70
2024/04/07 06:22:40;;;;;;;20.33;4.30;;;11.80;99.90;;;;;;5017221;28;20057;-70
2024/04/07 06:25:06;;;;;;;30.23;4.85;;;11.80;99.90;;;;;;5018682;28;20128;-71
2024/04/07 06:27:32;;;;;;;27.77;4.40;;;11.80;99.90;;;;;;5021071;28;20057;-71
2024/04/07 06:30:02;;;;;;;44.53;4.55;;;11.90;99.90;;;;;;5024592;28;20053;-72
2024/04/07 06:32:29;;;;;;;22.92;3.85;;;11.90;99.90;;;;;;4990438;28;20049;-72
2024/04/07 06:34:56;;;;;;;24.20;3.25;;;12.00;99.90;;;;;;5006935;28;20057;-71
2024/04/07 06:37:22;;;;;;;22.90;3.28;;;12.00;99.90;;;;;;5022749;28;20049;-71
2024/04/07 06:39:47;;;;;;;23.40;3.95;;;12.10;99.90;;;;;;5023677;28;20615;-71
2024/04/07 06:42:14;;;;;;;21.52;4.93;;;12.10;99.90;;;;;;5024387;28;20492;-71
2024/04/07 06:44:40;;;;;;;20.70;3.45;;;12.20;99.90;;;;;;5019633;28;20072;-72
2024/04/07 06:47:06;;;;;;;26.45;5.03;;;12.20;99.90;;;;;;5024262;28;20122;-72
2024/04/07 06:49:32;;;;;;;21.67;3.70;;;12.30;99.90;;;;;;5026037;28;20044;-72
2024/04/07 06:51:58;;;;;;;27.80;4.20;;;12.40;99.90;;;;;;5004298;28;20110;-72
2024/04/07 06:54:24;;;;;;;28.55;4.75;;;12.40;99.90;;;;;;5019230;28;20068;-72
2024/04/07 06:56:50;;;;;;;21.92;4.72;;;12.50;99.90;;;;;;5027418;28;20045;-72
2024/04/07 06:59:16;;;;;;;23.83;4.03;;;12.50;99.90;;;;;;5020111;28;20044;-72
2024/04/07 07:01:42;;;;;;;23.20;4.45;;;12.40;99.90;;;;;;5025152;28;20045;-72
2024/04/07 07:04:07;;;;;;;28.60;4.28;;;12.40;99.90;;;;;;5037379;28;20041;-71
2024/04/07 07:06:33;;;;;;;33.65;5.90;;;12.40;99.90;;;;;;5019949;28;20053;-72
2024/04/07 07:08:59;;;;;;;21.90;4.22;;;12.40;99.90;;;;;;5026176;28;20053;-72
2024/04/07 07:11:25;;;;;;;28.90;5.55;;;12.50;99.90;;;;;;5021897;28;21243;-73
2024/04/07 07:13:53;;;;;;;26.38;4.13;;;12.50;99.90;;;;;;5019826;28;20084;-71
2024/04/07 07:16:19;;;;;;;22.58;4.28;;;12.60;99.90;;;;;;5020682;28;20045;-72
2024/04/07 07:18:44;;;;;;;20.00;3.13;;;12.60;99.90;;;;;;5019196;28;20679;-72
2024/04/07 07:21:10;;;;;;;30.60;4.72;;;12.60;99.90;;;;;;5019449;28;20389;-71
2024/04/07 07:23:36;;;;;;;21.08;3.10;;;12.60;99.90;;;;;;5024591;28;20474;-71
2024/04/07 07:26:02;;;;;;;17.08;3.45;;;12.70;99.90;;;;;;5022691;28;20643;-73
2024/04/07 07:28:29;;;;;;;20.73;3.80;;;12.70;99.90;;;;;;5022105;28;20041;-71
2024/04/07 07:30:55;;;;;;;28.75;4.05;;;12.70;99.90;;;;;;5019840;28;21743;-72
2024/04/07 07:33:21;;;;;;;24.08;4.18;;;12.80;99.90;;;;;;5001191;28;20071;-72
2024/04/07 07:35:50;;;;;;;19.15;4.18;;;12.80;99.90;;;;;;5022051;28;20052;-71
2024/04/07 07:38:16;;;;;;;29.80;3.95;;;12.90;99.90;;;;;;5022416;28;20045;-72
2024/04/07 07:40:42;;;;;;;29.25;4.18;;;13.00;99.90;;;;;;5023782;28;20054;-72
2024/04/07 07:43:08;;;;;;;20.20;3.92;;;13.00;99.90;;;;;;5022725;28;20052;-72
2024/04/07 07:45:34;;;;;;;17.65;2.97;;;13.00;99.90;;;;;;5019243;28;20106;-72
2024/04/07 07:48:02;;;;;;;28.35;4.15;;;13.10;99.90;;;;;;5003357;28;20120;-72
2024/04/07 07:50:28;;;;;;;25.60;3.20;;;13.10;99.90;;;;;;5022762;28;20053;-73
2024/04/07 07:52:53;;;;;;;21.20;4.00;;;13.10;99.90;;;;;;5022389;28;20049;-72
2024/04/07 07:55:19;;;;;;;26.42;4.85;;;13.10;99.90;;;;;;5020175;28;20666;-72
2024/04/07 07:57:45;;;;;;;17.13;2.95;;;13.20;99.90;;;;;;5025582;28;20132;-72
2024/04/07 08:00:11;;;;;;;20.65;3.40;;;13.30;99.90;;;;;;5019167;28;20118;-72
2024/04/07 08:02:38;;;;;;;26.48;4.13;;;13.30;99.90;;;;;;5022995;28;20057;-71
2024/04/07 08:05:07;;;;;;;30.33;5.28;;;13.40;99.90;;;;;;5024350;28;21008;-73
2024/04/07 08:07:33;;;;;;;25.30;3.45;;;13.40;99.90;;;;;;5025483;28;20056;-72
2024/04/07 08:09:59;;;;;;;22.30;4.47;;;13.50;99.90;;;;;;5021355;28;20103;-72
2024/04/07 08:12:25;;;;;;;20.15;3.20;;;13.50;99.90;;;;;;5010353;28;20085;-72
2024/04/07 08:14:51;;;;;;;21.10;3.97;;;13.50;99.90;;;;;;5010631;28;20059;-72
2024/04/07 08:17:17;;;;;;;22.45;3.97;;;13.40;99.90;;;;;;5009461;28;20056;-73
2024/04/07 08:19:42;;;;;;;24.65;5.25;;;13.40;99.90;;;;;;5026489;28;20099;-72
2024/04/07 08:22:08;;;;;;;17.85;4.57;;;13.50;99.90;;;;;;5012936;28;20049;-72
2024/04/07 08:24:34;;;;;;;23.85;4.15;;;13.40;99.90;;;;;;5021557;28;20045;-72
2024/04/07 08:27:00;;;;;;;22.40;3.15;;;13.50;99.90;;;;;;5025401;28;20053;-72
2024/04/07 08:29:25;;;;;;;23.90;4.75;;;13.50;99.90;;;;;;5022037;28;20045;-72
2024/04/07 08:31:51;;;;;;;25.45;3.90;;;13.50;99.90;;;;;;5026348;28;20095;-72
2024/04/07 08:34:17;;;;;;;28.50;4.78;;;13.50;99.90;;;;;;5025239;28;20048;-73
2024/04/07 08:36:43;;;;;;;25.00;3.65;;;13.40;99.90;;;;;;5028884;28;20108;-73
2024/04/07 08:39:09;;;;;;;23.17;3.65;;;13.50;99.90;;;;;;5025955;28;20060;-73
2024/04/07 08:41:35;;;;;;;28.08;4.25;;;13.50;99.90;;;;;;5027257;28;20052;-73
2024/04/07 08:44:00;;;;;;;20.83;4.22;;;13.50;99.90;;;;;;5007937;28;20119;-73
2024/04/07 08:46:26;;;;;;;21.35;4.32;;;13.50;99.90;;;;;;4664846;28;10000161;-74
2024/04/07 08:48:52;;;;;;;24.45;3.72;;;13.50;99.90;;;;;;5005647;28;20048;-74
2024/04/07 08:51:18;;;;;;;22.83;3.45;;;13.50;99.90;;;;;;4989112;28;20068;-74
2024/04/07 08:53:44;;;;;;;20.48;4.32;;;13.50;99.90;;;;;;5023642;28;20052;-73
2024/04/07 08:56:11;;;;;;;24.88;4.18;;;13.60;99.90;;;;;;5009611;28;20156;-73
2024/04/07 08:58:40;;;;;;;21.50;4.75;;;13.70;99.90;;;;;;5021900;28;20048;-73
2024/04/07 09:01:08;;;;;;;30.85;6.43;;;13.80;99.90;;;;;;5003786;28;20736;-73
2024/04/07 09:03:34;;;;;;;21.77;4.43;;;13.80;99.90;;;;;;5007934;28;20500;-73
2024/04/07 09:05:59;;;;;;;25.75;4.47;;;13.80;99.90;;;;;;5022332;28;20091;-72
2024/04/07 09:08:25;;;;;;;15.50;2.95;;;13.90;99.90;;;;;;5035773;28;20400;-71
2024/04/07 09:10:51;;;;;;;22.73;3.60;;;13.90;99.90;;;;;;5023691;28;20060;-72
2024/04/07 09:13:17;;;;;;;21.70;4.10;;;13.90;99.90;;;;;;5017758;28;20045;-73
2024/04/07 09:15:43;;;;;;;28.38;4.38;;;14.10;99.90;;;;;;5016874;28;20057;-73
2024/04/07 09:18:10;;;;;;;26.70;4.45;;;14.20;99.90;;;;;;5023171;28;20719;-73
2024/04/07 09:20:36;;;;;;;29.45;4.63;;;14.40;99.90;;;;;;5021023;28;20081;-72
2024/04/07 09:23:03;;;;;;;23.52;4.20;;;14.50;99.90;;;;;;5034151;28;20063;-72
2024/04/07 09:25:30;;;;;;;25.35;5.13;;;14.60;99.90;;;;;;5019030;28;20056;-74
2024/04/07 09:27:57;;;;;;;22.67;3.90;;;14.60;99.90;;;;;;5015228;28;20053;-72
2024/04/07 09:30:23;;;;;;;23.27;4.85;;;14.60;99.90;;;;;;5019511;28;20532;-72
2024/04/07 09:32:49;;;;;;;19.60;3.70;;;14.50;99.90;;;;;;5021829;28;20531;-73
2024/04/07 09:35:15;;;;;;;20.58;4.32;;;14.80;99.90;;;;;;5018058;28;20060;-73
2024/04/07 09:37:42;;;;;;;13.98;4.05;;;15.00;99.90;;;;;;5022487;28;20557;-73
2024/04/07 09:40:08;;;;;;;18.10;3.38;;;15.20;99.90;;;;;;5003275;28;20539;-70
2024/04/07 09:42:36;;;;;;;22.58;3.97;;;15.10;99.90;;;;;;4992599;28;20060;-65
2024/04/07 09:45:03;;;;;;;30.90;5.97;;;15.40;99.90;;;;;;5009095;28;20110;-70
2024/04/07 09:47:28;;;;;;;24.83;4.55;;;15.60;99.90;;;;;;5004619;28;20049;-72
2024/04/07 09:50:11;;;;;;;16.67;3.33;;;15.40;99.90;;;;;;5023754;28;20048;-71
2024/04/07 09:52:41;;;;;;;23.88;4.00;;;15.40;99.90;;;;;;5025699;28;20071;-71
2024/04/07 09:55:07;;;;;;;17.48;3.72;;;15.70;99.90;;;;;;5009646;28;20087;-71
2024/04/07 09:57:33;;;;;;;23.77;3.88;;;15.50;99.90;;;;;;4997194;28;21555;-71
2024/04/07 09:59:59;;;;;;;22.02;4.75;;;15.30;99.90;;;;;;5021903;28;20116;-68
2024/04/07 10:02:25;;;;;;;14.00;3.17;;;15.00;99.90;;;;;;5014621;28;20126;-71
2024/04/07 10:04:51;;;;;;;23.88;5.45;;;15.30;99.90;;;;;;5022129;28;20075;-71
2024/04/07 10:07:18;;;;;;;20.55;3.97;;;15.70;99.90;;;;;;5017944;28;20061;-71
2024/04/07 10:09:44;;;;;;;21.15;3.25;;;15.50;99.90;;;;;;5023645;28;20041;-72
2024/04/07 10:12:09;;;;;;;24.70;4.80;;;15.50;99.90;;;;;;5016291;28;20099;-72
2024/04/07 10:14:39;;;;;;;23.10;3.75;;;15.60;99.90;;;;;;5020125;28;20053;-73
2024/04/07 10:17:09;;;;;;;18.95;4.45;;;15.50;99.90;;;;;;5004884;28;20064;-72
2024/04/07 10:19:42;;;;;;;19.67;5.53;;;15.50;99.90;;;;;;5036254;28;20708;-77
2024/04/07 10:22:08;;;;;;;17.33;3.42;;;15.50;99.90;;;;;;5017900;28;20061;-77
2024/04/07 10:24:34;;;;;;;19.40;3.63;;;15.60;99.90;;;;;;5008140;28;20049;-77
2024/04/07 10:27:00;;;;;;;20.48;3.95;;;15.70;99.90;;;;;;4996586;28;20127;-76
2024/04/07 10:29:32;;;;;;;17.30;3.50;;;15.80;99.90;;;;;;5015985;28;20548;-76
2024/04/07 10:31:58;;;;;;;26.10;4.55;;;15.70;99.90;;;;;;5004406;28;20057;-76
2024/04/07 10:34:23;;;;;;;12.57;2.97;;;15.90;99.90;;;;;;5000930;28;20098;-76
2024/04/07 10:36:53;;;;;;;15.85;3.97;;;15.90;99.90;;;;;;5017190;28;20053;-77
2024/04/07 10:39:23;;;;;;;17.23;3.05;;;15.90;99.90;;;;;;5013799;28;20052;-76
2024/04/07 10:41:49;;;;;;;25.33;4.65;;;15.90;99.90;;;;;;5003413;28;20920;-76
2024/04/07 10:44:15;;;;;;;21.73;4.72;;;16.00;99.90;;;;;;5004531;28;20041;-77
2024/04/07 10:46:41;;;;;;;21.80;4.00;;;15.90;99.90;;;;;;5002156;28;20053;-75
2024/04/07 10:49:07;;;;;;;25.35;4.53;;;15.90;99.90;;;;;;4996835;28;20063;-78
2024/04/07 10:51:33;;;;;;;18.30;4.45;;;15.90;99.90;;;;;;5005002;28;20068;-77
2024/04/07 10:54:06;;;;;;;22.00;4.00;;;15.80;99.90;;;;;;5017368;28;20057;-76
2024/04/07 10:56:32;;;;;;;27.65;5.07;;;15.90;99.90;;;;;;5020999;28;20064;-77
2024/04/07 10:58:59;;;;;;;15.65;3.88;;;16.00;99.90;;;;;;5014706;28;20040;-77
2024/04/07 11:01:25;;;;;;;25.63;4.97;;;16.00;99.90;;;;;;5023133;28;20718;-76
2024/04/07 11:03:59;;;;;;;22.48;3.55;;;15.70;99.90;;;;;;5016972;28;20060;-78
2024/04/07 11:06:28;;;;;;;21.35;5.28;;;15.70;99.90;;;;;;5005848;28;20053;-77
2024/04/07 11:08:54;;;;;;;20.90;4.20;;;15.70;99.90;;;;;;5026471;28;20057;-74
2024/04/07 11:11:21;;;;;;;23.10;4.43;;;15.70;99.90;;;;;;5004393;28;20088;-78
2024/04/07 11:13:51;;;;;;;23.33;4.57;;;15.80;99.90;;;;;;4983616;28;20064;-74
2024/04/07 11:16:17;;;;;;;23.52;3.95;;;15.90;99.90;;;;;;5019832;28;20049;-75
2024/04/07 11:18:43;;;;;;;17.23;3.33;;;16.00;99.90;;;;;;5016195;28;20060;-74
2024/04/07 11:21:10;;;;;;;25.55;3.88;;;16.00;99.90;;;;;;5013523;28;20052;-75
2024/04/07 11:23:39;;;;;;;25.45;4.30;;;16.00;99.90;;;;;;5003838;28;20451;-76
2024/04/07 11:26:08;;;;;;;24.85;4.05;;;16.20;99.90;;;;;;5015969;28;20064;-76
2024/04/07 11:28:37;;;;;;;19.17;4.78;;;16.20;99.90;;;;;;5021370;28;20045;-76
2024/04/07 11:31:03;;;;;;;14.15;3.63;;;16.00;99.90;;;;;;5021730;28;20064;-75
2024/04/07 11:33:32;;;;;;;26.77;4.55;;;15.80;99.90;;;;;;5023068;28;20056;-77
2024/04/07 11:35:57;;;;;;;21.13;4.47;;;15.80;99.90;;;;;;5003973;28;20060;-76
2024/04/07 11:38:23;;;;;;;16.30;5.43;;;15.80;99.90;;;;;;5023361;28;20045;-75
2024/04/07 11:40:50;;;;;;;22.05;4.63;;;15.90;99.90;;;;;;5025189;28;20037;-74
2024/04/07 11:43:16;;;;;;;18.25;3.40;;;15.90;99.90;;;;;;5024212;28;20064;-75
2024/04/07 11:45:42;;;;;;;19.10;4.80;;;16.00;99.90;;;;;;5024183;28;20127;-75
2024/04/07 11:48:08;;;;;;;25.55;4.28;;;16.20;99.90;;;;;;5030032;28;20471;-75
2024/04/07 11:50:34;;;;;;;16.63;3.42;;;16.20;99.90;;;;;;5028924;28;20492;-74
2024/04/07 11:52:59;;;;;;;14.27;2.90;;;16.30;99.90;;;;;;5030821;28;20064;-75
2024/04/07 11:55:25;;;;;;;26.65;3.38;;;16.40;99.90;;;;;;5023558;28;20263;-76
2024/04/07 11:57:51;;;;;;;17.58;3.55;;;16.50;99.90;;;;;;5029596;28;20056;-76
2024/04/07 12:00:17;;;;;;;19.48;3.47;;;16.50;99.90;;;;;;5023737;28;20623;-76
2024/04/07 12:02:43;;;;;;;15.80;3.15;;;16.60;99.90;;;;;;5023786;28;20068;-75
2024/04/07 12:05:09;;;;;;;13.30;2.88;;;16.70;99.90;;;;;;5042799;28;20068;-75
2024/04/07 12:07:35;;;;;;;18.08;3.50;;;16.70;99.90;;;;;;5026929;28;20056;-75
2024/04/07 12:10:02;;;;;;;19.70;4.32;;;16.70;99.90;;;;;;5011407;28;20049;-76
2024/04/07 12:12:28;;;;;;;19.80;3.60;;;16.80;99.90;;;;;;5021783;28;20059;-76
2024/04/07 12:14:54;;;;;;;11.48;2.72;;;16.90;99.90;;;;;;5009102;28;20406;-75
2024/04/07 12:17:20;;;;;;;25.42;3.53;;;16.90;99.90;;;;;;5020320;28;20061;-76
2024/04/07 12:19:46;;;;;;;16.50;3.58;;;16.80;99.90;;;;;;5023207;28;20045;-76
2024/04/07 12:22:16;;;;;;;21.45;3.75;;;16.80;99.90;;;;;;5030936;28;20056;-76
2024/04/07 12:24:42;;;;;;;21.63;3.78;;;16.70;99.90;;;;;;5022362;28;20087;-75
2024/04/07 12:27:08;;;;;;;13.98;3.10;;;16.50;99.90;;;;;;5025926;28;20424;-75
2024/04/07 12:29:34;;;;;;;14.82;3.28;;;16.60;99.90;;;;;;5026644;28;20056;-77
2024/04/07 12:32:00;;;;;;;17.70;3.88;;;16.60;99.90;;;;;;5027457;28;20118;-76
2024/04/07 12:34:26;;;;;;;14.20;2.70;;;16.70;99.90;;;;;;5002079;28;20045;-74
2024/04/07 12:36:52;;;;;;;15.10;3.15;;;16.60;99.90;;;;;;5018704;28;20427;-74